sensor_id;sensor_type;location;lat;lon;timestamp;temperature;humidity
26414;DHT22;14108;53.668;10.288;2022-12-18T00:02:08;-0.20;69.30
26414;DHT22;14108;53.668;10.288;2022-12-18T00:04:38;-0.20;69.10
26414;DHT22;14108;53.668;10.288;2022-12-18T00:07:05;-0.30;69.00
26414;DHT22;14108;53.668;10.288;2022-12-18T00:09:32;-0.30;69.20
26414;DHT22;14108;53.668;10.288;2022-12-18T00:11:59;-0.30;69.20
26414;DHT22;14108;53.668;10.288;2022-12-18T00:14:26;-0.30;69.00
26414;DHT22;14108;53.668;10.288;2022-12-18T00:16:54;-0.30;68.90
26414;DHT22;14108;53.668;10.288;2022-12-18T00:19:21;-0.20;68.80
26414;DHT22;14108;53.668;10.288;2022-12-18T00:21:48;-0.30;68.70
26414;DHT22;14108;53.668;10.288;2022-12-18T00:26:51;-0.30;69.20
26414;DHT22;14108;53.668;10.288;2022-12-18T00:29:18;-0.30;68.60
26414;DHT22;14108;53.668;10.288;2022-12-18T00:31:46;-0.30;68.10
26414;DHT22;14108;53.668;10.288;2022-12-18T00:34:13;-0.40;68.60
26414;DHT22;14108;53.668;10.288;2022-12-18T00:36:41;-0.40;68.70
26414;DHT22;14108;53.668;10.288;2022-12-18T00:39:10;-0.40;68.70
26414;DHT22;14108;53.668;10.288;2022-12-18T00:41:37;-0.40;68.60
26414;DHT22;14108;53.668;10.288;2022-12-18T00:44:23;-0.40;68.50
26414;DHT22;14108;53.668;10.288;2022-12-18T00:46:50;-0.40;68.40
26414;DHT22;14108;53.668;10.288;2022-12-18T00:49:18;-0.50;68.40
26414;DHT22;14108;53.668;10.288;2022-12-18T00:51:46;-0.50;68.50
26414;DHT22;14108;53.668;10.288;2022-12-18T00:54:13;-0.60;68.40
26414;DHT22;14108;53.668;10.288;2022-12-18T00:56:41;-0.50;68.50
26414;DHT22;14108;53.668;10.288;2022-12-18T00:59:08;-0.50;68.80
26414;DHT22;14108;53.668;10.288;2022-12-18T01:01:35;-0.50;68.80
26414;DHT22;14108;53.668;10.288;2022-12-18T01:04:03;-0.50;68.60
26414;DHT22;14108;53.668;10.288;2022-12-18T01:06:30;-0.50;68.40
26414;DHT22;14108;53.668;10.288;2022-12-18T01:08:58;-0.50;68.20
26414;DHT22;14108;53.668;10.288;2022-12-18T01:11:25;-0.60;68.10
26414;DHT22;14108;53.668;10.288;2022-12-18T01:13:53;-0.60;68.20
26414;DHT22;14108;53.668;10.288;2022-12-18T01:16:21;-0.60;68.20
26414;DHT22;14108;53.668;10.288;2022-12-18T01:18:52;-0.60;68.20
26414;DHT22;14108;53.668;10.288;2022-12-18T01:21:21;-0.60;68.20
26414;DHT22;14108;53.668;10.288;2022-12-18T01:23:52;-0.60;68.20
26414;DHT22;14108;53.668;10.288;2022-12-18T01:28:56;-0.60;68.00
26414;DHT22;14108;53.668;10.288;2022-12-18T01:31:25;-0.60;67.90
26414;DHT22;14108;53.668;10.288;2022-12-18T01:33:53;-0.70;67.80
26414;DHT22;14108;53.668;10.288;2022-12-18T01:36:22;-0.60;67.90
26414;DHT22;14108;53.668;10.288;2022-12-18T01:38:51;-0.70;67.80
26414;DHT22;14108;53.668;10.288;2022-12-18T01:41:21;-0.70;67.80
26414;DHT22;14108;53.668;10.288;2022-12-18T01:43:52;-0.70;67.80
26414;DHT22;14108;53.668;10.288;2022-12-18T01:46:20;-0.70;67.70
26414;DHT22;14108;53.668;10.288;2022-12-18T01:48:50;-0.80;67.70
26414;DHT22;14108;53.668;10.288;2022-12-18T01:51:18;-0.80;67.70
26414;DHT22;14108;53.668;10.288;2022-12-18T01:53:47;-0.80;67.80
26414;DHT22;14108;53.668;10.288;2022-12-18T01:56:16;-0.80;67.80
26414;DHT22;14108;53.668;10.288;2022-12-18T01:58:50;-0.80;68.00
26414;DHT22;14108;53.668;10.288;2022-12-18T02:01:20;-0.80;68.00
26414;DHT22;14108;53.668;10.288;2022-12-18T02:03:48;-0.80;68.00
26414;DHT22;14108;53.668;10.288;2022-12-18T02:06:19;-0.80;68.10
26414;DHT22;14108;53.668;10.288;2022-12-18T02:08:59;-0.90;68.00
26414;DHT22;14108;53.668;10.288;2022-12-18T02:11:37;-0.90;68.00
26414;DHT22;14108;53.668;10.288;2022-12-18T02:14:17;-0.90;67.90
26414;DHT22;14108;53.668;10.288;2022-12-18T02:16:48;-0.90;67.90
26414;DHT22;14108;53.668;10.288;2022-12-18T02:19:27;-0.90;67.90
26414;DHT22;14108;53.668;10.288;2022-12-18T02:22:11;-0.90;67.90
26414;DHT22;14108;53.668;10.288;2022-12-18T02:24:45;-0.90;68.00
26414;DHT22;14108;53.668;10.288;2022-12-18T02:27:19;-0.90;68.10
26414;DHT22;14108;53.668;10.288;2022-12-18T02:29:50;-0.90;68.10
26414;DHT22;14108;53.668;10.288;2022-12-18T02:32:21;-0.90;68.10
26414;DHT22;14108;53.668;10.288;2022-12-18T02:38:14;-1.00;68.10
26414;DHT22;14108;53.668;10.288;2022-12-18T02:40:43;-1.00;68.00
26414;DHT22;14108;53.668;10.288;2022-12-18T02:43:12;-1.00;68.10
26414;DHT22;14108;53.668;10.288;2022-12-18T02:45:48;-1.00;68.20
26414;DHT22;14108;53.668;10.288;2022-12-18T02:48:17;-1.00;68.30
26414;DHT22;14108;53.668;10.288;2022-12-18T02:50:51;-1.00;68.30
26414;DHT22;14108;53.668;10.288;2022-12-18T02:53:26;-1.00;68.20
26414;DHT22;14108;53.668;10.288;2022-12-18T02:56:01;-1.00;68.20
26414;DHT22;14108;53.668;10.288;2022-12-18T02:58:36;-1.00;68.00
26414;DHT22;14108;53.668;10.288;2022-12-18T03:01:11;-1.00;68.00
26414;DHT22;14108;53.668;10.288;2022-12-18T03:03:44;-1.00;68.10
26414;DHT22;14108;53.668;10.288;2022-12-18T03:06:18;-1.10;68.10
26414;DHT22;14108;53.668;10.288;2022-12-18T03:08:50;-1.00;68.20
26414;DHT22;14108;53.668;10.288;2022-12-18T03:11:19;-1.00;68.10
26414;DHT22;14108;53.668;10.288;2022-12-18T03:14:52;-1.10;68.10
26414;DHT22;14108;53.668;10.288;2022-12-18T03:17:24;-1.00;67.90
26414;DHT22;14108;53.668;10.288;2022-12-18T03:19:54;-1.10;67.90
26414;DHT22;14108;53.668;10.288;2022-12-18T03:22:24;-1.10;67.80
26414;DHT22;14108;53.668;10.288;2022-12-18T03:24:54;-1.10;67.80
26414;DHT22;14108;53.668;10.288;2022-12-18T03:27:24;-1.10;67.70
26414;DHT22;14108;53.668;10.288;2022-12-18T03:29:55;-1.10;67.70
26414;DHT22;14108;53.668;10.288;2022-12-18T03:32:31;-1.20;67.50
26414;DHT22;14108;53.668;10.288;2022-12-18T03:35:02;-1.10;67.60
26414;DHT22;14108;53.668;10.288;2022-12-18T03:37:34;-1.10;67.70
26414;DHT22;14108;53.668;10.288;2022-12-18T03:40:02;-1.20;67.50
26414;DHT22;14108;53.668;10.288;2022-12-18T03:42:32;-1.20;67.50
26414;DHT22;14108;53.668;10.288;2022-12-18T03:45:05;-1.20;67.50
26414;DHT22;14108;53.668;10.288;2022-12-18T03:47:39;-1.20;67.50
26414;DHT22;14108;53.668;10.288;2022-12-18T03:50:13;-1.20;67.50
26414;DHT22;14108;53.668;10.288;2022-12-18T03:52:45;-1.20;67.50
26414;DHT22;14108;53.668;10.288;2022-12-18T03:55:14;-1.20;67.50
26414;DHT22;14108;53.668;10.288;2022-12-18T03:57:43;-1.30;67.60
26414;DHT22;14108;53.668;10.288;2022-12-18T04:00:14;-1.30;67.60
26414;DHT22;14108;53.668;10.288;2022-12-18T04:02:46;-1.30;67.60
26414;DHT22;14108;53.668;10.288;2022-12-18T04:05:15;-1.30;67.50
26414;DHT22;14108;53.668;10.288;2022-12-18T04:07:45;-1.30;67.40
26414;DHT22;14108;53.668;10.288;2022-12-18T04:10:13;-1.30;67.30
26414;DHT22;14108;53.668;10.288;2022-12-18T04:12:41;-1.30;67.40
26414;DHT22;14108;53.668;10.288;2022-12-18T04:15:10;-1.30;67.40
26414;DHT22;14108;53.668;10.288;2022-12-18T04:17:38;-1.30;67.40
26414;DHT22;14108;53.668;10.288;2022-12-18T04:20:08;-1.30;67.30
26414;DHT22;14108;53.668;10.288;2022-12-18T04:22:35;-1.30;67.40
26414;DHT22;14108;53.668;10.288;2022-12-18T04:25:02;-1.30;67.40
26414;DHT22;14108;53.668;10.288;2022-12-18T04:27:30;-1.40;67.30
26414;DHT22;14108;53.668;10.288;2022-12-18T04:29:57;-1.40;67.50
26414;DHT22;14108;53.668;10.288;2022-12-18T04:32:24;-1.40;67.60
26414;DHT22;14108;53.668;10.288;2022-12-18T04:34:51;-1.40;67.60
26414;DHT22;14108;53.668;10.288;2022-12-18T04:37:19;-1.40;67.60
26414;DHT22;14108;53.668;10.288;2022-12-18T04:39:46;-1.40;67.50
26414;DHT22;14108;53.668;10.288;2022-12-18T04:42:13;-1.40;67.50
26414;DHT22;14108;53.668;10.288;2022-12-18T04:44:40;-1.50;67.60
26414;DHT22;14108;53.668;10.288;2022-12-18T04:47:08;-1.50;67.70
26414;DHT22;14108;53.668;10.288;2022-12-18T04:49:35;-1.50;67.60
26414;DHT22;14108;53.668;10.288;2022-12-18T04:52:02;-1.50;67.60
26414;DHT22;14108;53.668;10.288;2022-12-18T04:54:29;-1.50;67.60
26414;DHT22;14108;53.668;10.288;2022-12-18T04:56:56;-1.50;67.50
26414;DHT22;14108;53.668;10.288;2022-12-18T04:59:23;-1.50;67.40
26414;DHT22;14108;53.668;10.288;2022-12-18T05:01:50;-1.50;67.30
26414;DHT22;14108;53.668;10.288;2022-12-18T05:04:18;-1.50;67.70
26414;DHT22;14108;53.668;10.288;2022-12-18T05:06:45;-1.50;67.30
26414;DHT22;14108;53.668;10.288;2022-12-18T05:09:12;-1.50;67.30
26414;DHT22;14108;53.668;10.288;2022-12-18T05:11:39;-1.50;67.30
26414;DHT22;14108;53.668;10.288;2022-12-18T05:14:06;-1.60;67.30
26414;DHT22;14108;53.668;10.288;2022-12-18T05:16:33;-1.60;67.70
26414;DHT22;14108;53.668;10.288;2022-12-18T05:19:00;-1.60;67.30
26414;DHT22;14108;53.668;10.288;2022-12-18T05:21:28;-1.60;67.30
26414;DHT22;14108;53.668;10.288;2022-12-18T05:23:55;-1.60;67.50
26414;DHT22;14108;53.668;10.288;2022-12-18T05:26:22;-1.60;67.50
26414;DHT22;14108;53.668;10.288;2022-12-18T05:28:49;-1.60;67.50
26414;DHT22;14108;53.668;10.288;2022-12-18T05:31:16;-1.60;67.40
26414;DHT22;14108;53.668;10.288;2022-12-18T05:33:44;-1.60;67.20
26414;DHT22;14108;53.668;10.288;2022-12-18T05:36:11;-1.60;67.30
26414;DHT22;14108;53.668;10.288;2022-12-18T05:38:39;-1.60;67.20
26414;DHT22;14108;53.668;10.288;2022-12-18T05:41:07;-1.70;67.10
26414;DHT22;14108;53.668;10.288;2022-12-18T05:43:35;-1.70;67.10
26414;DHT22;14108;53.668;10.288;2022-12-18T05:46:05;-1.70;67.10
26414;DHT22;14108;53.668;10.288;2022-12-18T05:48:33;-1.70;67.20
26414;DHT22;14108;53.668;10.288;2022-12-18T05:51:05;-1.70;67.20
26414;DHT22;14108;53.668;10.288;2022-12-18T05:53:32;-1.70;67.30
26414;DHT22;14108;53.668;10.288;2022-12-18T05:56:01;-1.70;67.40
26414;DHT22;14108;53.668;10.288;2022-12-18T05:58:28;-1.70;67.10
26414;DHT22;14108;53.668;10.288;2022-12-18T06:00:56;-1.70;67.20
26414;DHT22;14108;53.668;10.288;2022-12-18T06:03:24;-1.70;67.20
26414;DHT22;14108;53.668;10.288;2022-12-18T06:05:51;-1.80;67.20
26414;DHT22;14108;53.668;10.288;2022-12-18T06:08:18;-1.80;67.10
26414;DHT22;14108;53.668;10.288;2022-12-18T06:10:51;-1.80;67.10
26414;DHT22;14108;53.668;10.288;2022-12-18T06:13:19;-1.80;67.20
26414;DHT22;14108;53.668;10.288;2022-12-18T06:15:46;-1.80;67.20
26414;DHT22;14108;53.668;10.288;2022-12-18T06:18:14;-1.80;67.20
26414;DHT22;14108;53.668;10.288;2022-12-18T06:20:41;-1.80;67.10
26414;DHT22;14108;53.668;10.288;2022-12-18T06:23:08;-1.80;67.20
26414;DHT22;14108;53.668;10.288;2022-12-18T06:28:13;-1.80;67.10
26414;DHT22;14108;53.668;10.288;2022-12-18T06:30:40;-1.80;67.10
26414;DHT22;14108;53.668;10.288;2022-12-18T06:33:09;-1.90;67.00
26414;DHT22;14108;53.668;10.288;2022-12-18T06:35:37;-1.90;67.00
26414;DHT22;14108;53.668;10.288;2022-12-18T06:38:04;-1.90;67.10
26414;DHT22;14108;53.668;10.288;2022-12-18T06:40:31;-1.90;67.20
26414;DHT22;14108;53.668;10.288;2022-12-18T06:42:58;-1.90;67.20
26414;DHT22;14108;53.668;10.288;2022-12-18T06:45:25;-1.90;67.30
26414;DHT22;14108;53.668;10.288;2022-12-18T06:47:52;-1.90;67.30
26414;DHT22;14108;53.668;10.288;2022-12-18T06:50:20;-1.90;67.40
26414;DHT22;14108;53.668;10.288;2022-12-18T06:52:47;-1.90;67.60
26414;DHT22;14108;53.668;10.288;2022-12-18T06:55:14;-1.90;67.60
26414;DHT22;14108;53.668;10.288;2022-12-18T06:57:42;-1.90;67.60
26414;DHT22;14108;53.668;10.288;2022-12-18T07:00:11;-2.00;67.40
26414;DHT22;14108;53.668;10.288;2022-12-18T07:02:38;-2.00;67.30
26414;DHT22;14108;53.668;10.288;2022-12-18T07:05:07;-2.00;67.30
26414;DHT22;14108;53.668;10.288;2022-12-18T07:07:34;-2.00;67.40
26414;DHT22;14108;53.668;10.288;2022-12-18T07:10:02;-2.00;67.40
26414;DHT22;14108;53.668;10.288;2022-12-18T07:12:29;-2.00;67.40
26414;DHT22;14108;53.668;10.288;2022-12-18T07:14:56;-2.00;67.70
26414;DHT22;14108;53.668;10.288;2022-12-18T07:17:23;-2.00;67.80
26414;DHT22;14108;53.668;10.288;2022-12-18T07:19:50;-2.10;67.80
26414;DHT22;14108;53.668;10.288;2022-12-18T07:22:17;-2.00;67.80
26414;DHT22;14108;53.668;10.288;2022-12-18T07:24:45;-2.00;67.90
26414;DHT22;14108;53.668;10.288;2022-12-18T07:27:12;-2.00;67.90
26414;DHT22;14108;53.668;10.288;2022-12-18T07:29:39;-2.00;67.80
26414;DHT22;14108;53.668;10.288;2022-12-18T07:32:06;-2.00;67.90
26414;DHT22;14108;53.668;10.288;2022-12-18T07:34:34;-2.00;67.80
26414;DHT22;14108;53.668;10.288;2022-12-18T07:37:01;-2.00;67.60
26414;DHT22;14108;53.668;10.288;2022-12-18T07:39:28;-2.00;67.50
26414;DHT22;14108;53.668;10.288;2022-12-18T07:41:55;-2.00;67.50
26414;DHT22;14108;53.668;10.288;2022-12-18T07:44:41;-2.00;67.50
26414;DHT22;14108;53.668;10.288;2022-12-18T07:47:08;-2.00;67.60
26414;DHT22;14108;53.668;10.288;2022-12-18T07:49:35;-2.00;67.90
26414;DHT22;14108;53.668;10.288;2022-12-18T07:52:03;-2.00;68.00
26414;DHT22;14108;53.668;10.288;2022-12-18T07:54:30;-2.00;67.90
26414;DHT22;14108;53.668;10.288;2022-12-18T07:56:57;-2.00;68.00
26414;DHT22;14108;53.668;10.288;2022-12-18T07:59:24;-2.00;68.00
26414;DHT22;14108;53.668;10.288;2022-12-18T08:01:51;-1.90;68.10
26414;DHT22;14108;53.668;10.288;2022-12-18T08:04:19;-1.90;68.10
26414;DHT22;14108;53.668;10.288;2022-12-18T08:06:46;-1.90;68.10
26414;DHT22;14108;53.668;10.288;2022-12-18T08:09:14;-1.90;68.10
26414;DHT22;14108;53.668;10.288;2022-12-18T08:11:41;-1.90;68.10
26414;DHT22;14108;53.668;10.288;2022-12-18T08:14:09;-1.90;68.10
26414;DHT22;14108;53.668;10.288;2022-12-18T08:16:36;-1.90;68.10
26414;DHT22;14108;53.668;10.288;2022-12-18T08:19:03;-1.90;68.90
26414;DHT22;14108;53.668;10.288;2022-12-18T08:21:31;-1.90;68.10
26414;DHT22;14108;53.668;10.288;2022-12-18T08:24:00;-1.90;68.10
26414;DHT22;14108;53.668;10.288;2022-12-18T08:26:30;-1.80;68.10
26414;DHT22;14108;53.668;10.288;2022-12-18T08:28:59;-1.80;68.20
26414;DHT22;14108;53.668;10.288;2022-12-18T08:31:28;-1.80;68.40
26414;DHT22;14108;53.668;10.288;2022-12-18T08:33:56;-1.80;68.50
26414;DHT22;14108;53.668;10.288;2022-12-18T08:36:24;-1.80;68.50
26414;DHT22;14108;53.668;10.288;2022-12-18T08:38:52;-1.70;69.40
26414;DHT22;14108;53.668;10.288;2022-12-18T08:41:20;-1.70;68.40
26414;DHT22;14108;53.668;10.288;2022-12-18T08:43:48;-1.70;68.40
26414;DHT22;14108;53.668;10.288;2022-12-18T08:46:35;-1.70;68.30
26414;DHT22;14108;53.668;10.288;2022-12-18T08:49:03;-1.70;68.20
26414;DHT22;14108;53.668;10.288;2022-12-18T08:51:30;-1.60;68.20
26414;DHT22;14108;53.668;10.288;2022-12-18T08:53:58;-1.60;68.20
26414;DHT22;14108;53.668;10.288;2022-12-18T08:56:25;-1.60;68.20
26414;DHT22;14108;53.668;10.288;2022-12-18T08:58:53;-1.60;68.10
26414;DHT22;14108;53.668;10.288;2022-12-18T09:01:21;-1.50;68.10
26414;DHT22;14108;53.668;10.288;2022-12-18T09:03:49;-1.50;68.10
26414;DHT22;14108;53.668;10.288;2022-12-18T09:06:18;-1.50;68.10
26414;DHT22;14108;53.668;10.288;2022-12-18T09:08:46;-1.50;68.10
26414;DHT22;14108;53.668;10.288;2022-12-18T09:11:16;-1.50;68.00
26414;DHT22;14108;53.668;10.288;2022-12-18T09:13:45;-1.50;68.00
26414;DHT22;14108;53.668;10.288;2022-12-18T09:16:12;-1.40;68.10
26414;DHT22;14108;53.668;10.288;2022-12-18T09:18:39;-1.50;68.00
26414;DHT22;14108;53.668;10.288;2022-12-18T09:21:11;-1.40;67.90
26414;DHT22;14108;53.668;10.288;2022-12-18T09:23:39;-1.40;67.90
26414;DHT22;14108;53.668;10.288;2022-12-18T09:26:06;-1.40;68.10
26414;DHT22;14108;53.668;10.288;2022-12-18T09:28:33;-1.40;68.70
26414;DHT22;14108;53.668;10.288;2022-12-18T09:31:04;-1.40;67.90
26414;DHT22;14108;53.668;10.288;2022-12-18T09:33:32;-1.40;67.80
26414;DHT22;14108;53.668;10.288;2022-12-18T09:36:01;-1.30;67.90
26414;DHT22;14108;53.668;10.288;2022-12-18T09:38:29;-1.30;67.90
26414;DHT22;14108;53.668;10.288;2022-12-18T09:40:59;-1.30;67.80
26414;DHT22;14108;53.668;10.288;2022-12-18T09:43:29;-1.30;67.70
26414;DHT22;14108;53.668;10.288;2022-12-18T09:46:03;-1.20;67.80
26414;DHT22;14108;53.668;10.288;2022-12-18T09:48:35;-1.20;67.90
26414;DHT22;14108;53.668;10.288;2022-12-18T09:51:09;-1.20;67.90
26414;DHT22;14108;53.668;10.288;2022-12-18T09:53:41;-1.10;67.80
26414;DHT22;14108;53.668;10.288;2022-12-18T09:56:15;-1.10;67.70
26414;DHT22;14108;53.668;10.288;2022-12-18T09:58:49;-1.10;67.90
26414;DHT22;14108;53.668;10.288;2022-12-18T10:01:21;-1.10;68.00
26414;DHT22;14108;53.668;10.288;2022-12-18T10:03:50;-1.10;68.20
26414;DHT22;14108;53.668;10.288;2022-12-18T10:06:21;-1.00;68.30
26414;DHT22;14108;53.668;10.288;2022-12-18T10:08:56;-1.00;68.40
26414;DHT22;14108;53.668;10.288;2022-12-18T10:11:36;-0.90;68.30
26414;DHT22;14108;53.668;10.288;2022-12-18T10:14:09;-0.90;68.30
26414;DHT22;14108;53.668;10.288;2022-12-18T10:16:46;-0.90;68.10
26414;DHT22;14108;53.668;10.288;2022-12-18T10:19:34;-0.90;68.20
26414;DHT22;14108;53.668;10.288;2022-12-18T10:22:11;-0.80;68.40
26414;DHT22;14108;53.668;10.288;2022-12-18T10:24:51;-0.80;68.40
26414;DHT22;14108;53.668;10.288;2022-12-18T10:27:23;-0.70;68.30
26414;DHT22;14108;53.668;10.288;2022-12-18T10:29:51;-0.70;68.20
26414;DHT22;14108;53.668;10.288;2022-12-18T10:32:20;-0.70;68.20
26414;DHT22;14108;53.668;10.288;2022-12-18T10:34:48;-0.70;68.20
26414;DHT22;14108;53.668;10.288;2022-12-18T10:37:18;-0.60;68.10
26414;DHT22;14108;53.668;10.288;2022-12-18T10:39:45;-0.60;68.00
26414;DHT22;14108;53.668;10.288;2022-12-18T10:42:17;-0.60;68.00
26414;DHT22;14108;53.668;10.288;2022-12-18T10:44:44;-0.60;67.80
26414;DHT22;14108;53.668;10.288;2022-12-18T10:47:15;-0.60;67.80
26414;DHT22;14108;53.668;10.288;2022-12-18T10:49:49;-0.50;67.80
26414;DHT22;14108;53.668;10.288;2022-12-18T10:52:18;-0.50;67.70
26414;DHT22;14108;53.668;10.288;2022-12-18T10:54:50;-0.40;67.70
26414;DHT22;14108;53.668;10.288;2022-12-18T10:57:31;-0.40;67.60
26414;DHT22;14108;53.668;10.288;2022-12-18T11:00:00;-0.40;67.50
26414;DHT22;14108;53.668;10.288;2022-12-18T11:02:34;-0.40;67.20
26414;DHT22;14108;53.668;10.288;2022-12-18T11:05:04;-0.30;67.20
26414;DHT22;14108;53.668;10.288;2022-12-18T11:07:50;-0.30;67.30
26414;DHT22;14108;53.668;10.288;2022-12-18T11:10:19;-0.30;67.30
26414;DHT22;14108;53.668;10.288;2022-12-18T11:12:47;-0.30;67.40
26414;DHT22;14108;53.668;10.288;2022-12-18T11:15:18;-0.20;67.50
26414;DHT22;14108;53.668;10.288;2022-12-18T11:17:48;-0.20;67.50
26414;DHT22;14108;53.668;10.288;2022-12-18T11:20:26;-0.10;67.40
26414;DHT22;14108;53.668;10.288;2022-12-18T11:22:58;-0.10;67.30
26414;DHT22;14108;53.668;10.288;2022-12-18T11:25:29;-0.10;67.10
26414;DHT22;14108;53.668;10.288;2022-12-18T11:27:59;-0.10;66.70
26414;DHT22;14108;53.668;10.288;2022-12-18T11:30:28;0.00;66.70
26414;DHT22;14108;53.668;10.288;2022-12-18T11:33:04;0.00;66.60
26414;DHT22;14108;53.668;10.288;2022-12-18T11:35:43;0.00;66.50
26414;DHT22;14108;53.668;10.288;2022-12-18T11:38:20;0.00;66.50
26414;DHT22;14108;53.668;10.288;2022-12-18T11:40:55;0.00;66.50
26414;DHT22;14108;53.668;10.288;2022-12-18T11:43:28;0.10;66.50
26414;DHT22;14108;53.668;10.288;2022-12-18T11:45:56;0.10;66.70
26414;DHT22;14108;53.668;10.288;2022-12-18T11:48:28;0.20;67.00
26414;DHT22;14108;53.668;10.288;2022-12-18T11:50:58;0.30;66.80
26414;DHT22;14108;53.668;10.288;2022-12-18T11:53:27;0.30;67.00
26414;DHT22;14108;53.668;10.288;2022-12-18T11:56:05;0.30;67.00
26414;DHT22;14108;53.668;10.288;2022-12-18T11:58:45;0.40;67.00
26414;DHT22;14108;53.668;10.288;2022-12-18T12:01:24;0.40;66.80
26414;DHT22;14108;53.668;10.288;2022-12-18T12:04:24;0.40;66.70
26414;DHT22;14108;53.668;10.288;2022-12-18T12:07:02;0.50;66.60
26414;DHT22;14108;53.668;10.288;2022-12-18T12:09:34;0.50;66.50
26414;DHT22;14108;53.668;10.288;2022-12-18T12:12:15;0.60;66.30
26414;DHT22;14108;53.668;10.288;2022-12-18T12:14:55;0.60;66.20
26414;DHT22;14108;53.668;10.288;2022-12-18T12:17:30;0.60;66.00
26414;DHT22;14108;53.668;10.288;2022-12-18T12:20:04;0.70;66.00
26414;DHT22;14108;53.668;10.288;2022-12-18T12:22:39;0.70;65.60
26414;DHT22;14108;53.668;10.288;2022-12-18T12:25:23;0.70;65.20
26414;DHT22;14108;53.668;10.288;2022-12-18T12:27:58;0.70;65.10
26414;DHT22;14108;53.668;10.288;2022-12-18T12:33:19;0.70;65.00
26414;DHT22;14108;53.668;10.288;2022-12-18T12:35:52;0.70;65.10
26414;DHT22;14108;53.668;10.288;2022-12-18T12:38:24;0.70;65.20
26414;DHT22;14108;53.668;10.288;2022-12-18T12:40:56;0.80;65.20
26414;DHT22;14108;53.668;10.288;2022-12-18T12:43:31;0.70;65.10
26414;DHT22;14108;53.668;10.288;2022-12-18T12:46:05;0.80;65.10
26414;DHT22;14108;53.668;10.288;2022-12-18T12:48:40;0.70;65.00
26414;DHT22;14108;53.668;10.288;2022-12-18T12:51:12;0.80;64.80
26414;DHT22;14108;53.668;10.288;2022-12-18T12:53:41;0.70;64.60
26414;DHT22;14108;53.668;10.288;2022-12-18T12:56:11;0.80;64.70
26414;DHT22;14108;53.668;10.288;2022-12-18T12:58:45;0.70;64.60
26414;DHT22;14108;53.668;10.288;2022-12-18T13:01:21;0.70;64.60
26414;DHT22;14108;53.668;10.288;2022-12-18T13:03:57;0.70;64.50
26414;DHT22;14108;53.668;10.288;2022-12-18T13:06:38;0.70;64.50
26414;DHT22;14108;53.668;10.288;2022-12-18T13:09:07;0.70;64.40
26414;DHT22;14108;53.668;10.288;2022-12-18T13:11:39;0.70;64.50
26414;DHT22;14108;53.668;10.288;2022-12-18T13:14:28;0.70;64.50
26414;DHT22;14108;53.668;10.288;2022-12-18T13:17:16;0.70;64.40
26414;DHT22;14108;53.668;10.288;2022-12-18T13:19:49;0.70;64.60
26414;DHT22;14108;53.668;10.288;2022-12-18T13:22:28;0.70;64.70
26414;DHT22;14108;53.668;10.288;2022-12-18T13:24:57;0.70;64.50
26414;DHT22;14108;53.668;10.288;2022-12-18T13:27:53;0.70;64.80
26414;DHT22;14108;53.668;10.288;2022-12-18T13:30:44;0.70;64.90
26414;DHT22;14108;53.668;10.288;2022-12-18T13:36:31;0.70;64.80
26414;DHT22;14108;53.668;10.288;2022-12-18T13:42:40;0.70;64.90
26414;DHT22;14108;53.668;10.288;2022-12-18T13:45:46;0.70;64.80
26414;DHT22;14108;53.668;10.288;2022-12-18T13:48:20;0.60;64.80
26414;DHT22;14108;53.668;10.288;2022-12-18T13:50:53;0.60;64.90
26414;DHT22;14108;53.668;10.288;2022-12-18T13:53:26;0.60;65.00
26414;DHT22;14108;53.668;10.288;2022-12-18T13:55:54;0.60;65.00
26414;DHT22;14108;53.668;10.288;2022-12-18T13:58:21;0.60;65.00
26414;DHT22;14108;53.668;10.288;2022-12-18T14:00:48;0.50;64.80
26414;DHT22;14108;53.668;10.288;2022-12-18T14:03:19;0.60;65.00
26414;DHT22;14108;53.668;10.288;2022-12-18T14:05:54;0.50;64.90
26414;DHT22;14108;53.668;10.288;2022-12-18T14:08:21;0.50;65.00
26414;DHT22;14108;53.668;10.288;2022-12-18T14:10:50;0.50;64.90
26414;DHT22;14108;53.668;10.288;2022-12-18T14:13:23;0.50;64.90
26414;DHT22;14108;53.668;10.288;2022-12-18T14:15:51;0.50;65.00
26414;DHT22;14108;53.668;10.288;2022-12-18T14:18:23;0.50;64.90
26414;DHT22;14108;53.668;10.288;2022-12-18T14:20:51;0.50;65.80
26414;DHT22;14108;53.668;10.288;2022-12-18T14:23:29;0.40;65.10
26414;DHT22;14108;53.668;10.288;2022-12-18T14:25:56;0.40;65.10
26414;DHT22;14108;53.668;10.288;2022-12-18T14:28:24;0.40;65.10
26414;DHT22;14108;53.668;10.288;2022-12-18T14:30:53;0.40;65.10
26414;DHT22;14108;53.668;10.288;2022-12-18T14:33:23;0.30;65.20
26414;DHT22;14108;53.668;10.288;2022-12-18T14:35:56;0.30;65.20
26414;DHT22;14108;53.668;10.288;2022-12-18T14:38:26;0.30;65.40
26414;DHT22;14108;53.668;10.288;2022-12-18T14:41:03;0.30;65.50
26414;DHT22;14108;53.668;10.288;2022-12-18T14:43:33;0.30;65.50
26414;DHT22;14108;53.668;10.288;2022-12-18T14:46:01;0.30;65.70
26414;DHT22;14108;53.668;10.288;2022-12-18T14:48:36;0.30;65.70
26414;DHT22;14108;53.668;10.288;2022-12-18T14:51:06;0.30;65.70
26414;DHT22;14108;53.668;10.288;2022-12-18T14:53:40;0.30;65.90
26414;DHT22;14108;53.668;10.288;2022-12-18T14:56:17;0.20;65.80
26414;DHT22;14108;53.668;10.288;2022-12-18T14:58:51;0.20;65.80
26414;DHT22;14108;53.668;10.288;2022-12-18T15:01:25;0.10;66.50
26414;DHT22;14108;53.668;10.288;2022-12-18T15:03:53;0.10;66.00
26414;DHT22;14108;53.668;10.288;2022-12-18T15:06:31;0.10;66.10
26414;DHT22;14108;53.668;10.288;2022-12-18T15:08:59;0.10;66.20
26414;DHT22;14108;53.668;10.288;2022-12-18T15:14:35;0.00;66.40
26414;DHT22;14108;53.668;10.288;2022-12-18T15:17:14;0.00;66.40
26414;DHT22;14108;53.668;10.288;2022-12-18T15:19:43;0.00;66.50
26414;DHT22;14108;53.668;10.288;2022-12-18T15:22:34;-0.10;66.50
26414;DHT22;14108;53.668;10.288;2022-12-18T15:25:04;0.00;66.80
26414;DHT22;14108;53.668;10.288;2022-12-18T15:27:47;-0.10;66.70
26414;DHT22;14108;53.668;10.288;2022-12-18T15:30:33;-0.10;66.80
26414;DHT22;14108;53.668;10.288;2022-12-18T15:33:22;-0.10;66.90
26414;DHT22;14108;53.668;10.288;2022-12-18T15:35:57;-0.20;67.00
26414;DHT22;14108;53.668;10.288;2022-12-18T15:38:25;-0.20;67.00
26414;DHT22;14108;53.668;10.288;2022-12-18T15:40:52;-0.20;67.10
26414;DHT22;14108;53.668;10.288;2022-12-18T15:43:22;-0.30;67.20
26414;DHT22;14108;53.668;10.288;2022-12-18T15:46:03;-0.30;67.40
26414;DHT22;14108;53.668;10.288;2022-12-18T15:48:32;-0.30;67.50
26414;DHT22;14108;53.668;10.288;2022-12-18T15:51:00;-0.30;67.60
26414;DHT22;14108;53.668;10.288;2022-12-18T15:53:31;-0.30;67.70
26414;DHT22;14108;53.668;10.288;2022-12-18T15:55:59;-0.40;67.90
26414;DHT22;14108;53.668;10.288;2022-12-18T15:58:45;-0.40;68.10
26414;DHT22;14108;53.668;10.288;2022-12-18T16:01:25;-0.40;68.20
26414;DHT22;14108;53.668;10.288;2022-12-18T16:03:53;-0.40;68.20
26414;DHT22;14108;53.668;10.288;2022-12-18T16:06:20;-0.40;68.30
26414;DHT22;14108;53.668;10.288;2022-12-18T16:08:47;-0.50;69.20